Nearby METAR Reports

 

YSRI - Richmond (aus-Af, Australia
Distance from station: SW 65km
Updated: 03/12/2022 08:00
Mostly cloudy
Mostly cloudy
 Wind from calm
Wind: Calm
Temperature: 17°C
Dew Point: 15°C
Humidity: 88%
Barometer: 1019 hPa
Clouds: Mostly cloudy
Visibility: 10 km
Cloud details: Mostly cloudy 1676 m
2022/12/02 21:00 YSRI 022100Z AUTO 00000KT 9999 // BKN055 17/15 Q1019 RF00.0/000.0
YWLM - Williamtown Arp, Australia
Distance from station: NE 69km
Updated: 03/12/2022 08:00
Mostly cloudy
Mostly cloudy
 Wind from SSE
Wind: SSE 20 km/h
Temperature: 20°C
Dew Point: 14°C
Humidity: 69%
Barometer: 1018 hPa
Clouds: Mostly cloudy
Visibility: 10 km
Cloud details: Partly cloudy 671 m
Mostly cloudy 1951 m
2022/12/02 21:00 YWLM 022100Z AUTO 16011KT 9999 // SCT022 BKN064 20/14 Q1018
 
YSSY - Sydney Intl Airp, Australia
Distance from station: SSW 77km
Updated: 03/12/2022 08:00
Few Clouds
Few Clouds
 Wind from SSW
Wind: SSW 13 km/h
Temperature: 18°C
Dew Point: 13°C
Humidity: 73%
Barometer: 1019 hPa
Clouds: Few Clouds
Visibility: 10 km
Cloud details: Few Clouds 762 m
2022/12/02 21:00 YSSY 022100Z 21007KT 170V230 9999 FEW025 18/13 Q1019